createdAt,value
2018-05-14T00:04:37.638Z,99.90
2018-05-14T00:09:38.714Z,99.90
2018-05-14T00:14:40.503Z,99.90
2018-05-14T00:19:41.650Z,99.90
2018-05-14T00:24:43.435Z,99.90
2018-05-14T00:29:45.235Z,99.90
2018-05-14T00:34:46.339Z,99.90
2018-05-14T00:39:47.362Z,99.90
2018-05-14T00:44:48.414Z,99.90
2018-05-14T00:49:49.449Z,99.90
2018-05-14T00:55:02.747Z,99.90
2018-05-14T01:00:03.782Z,99.90
2018-05-14T01:05:04.817Z,99.90
2018-05-14T01:10:05.851Z,99.90
2018-05-14T01:15:07.700Z,99.90
2018-05-14T01:20:08.763Z,99.90
2018-05-14T01:25:09.784Z,99.90
2018-05-14T01:30:10.819Z,99.90
2018-05-14T01:35:12.619Z,99.90
2018-05-14T01:40:13.674Z,99.90
2018-05-14T01:45:14.750Z,99.90
2018-05-14T01:50:15.775Z,99.90
2018-05-14T01:55:17.608Z,99.90
2018-05-14T02:00:18.635Z,99.90
2018-05-14T02:05:19.692Z,99.90
2018-05-14T02:10:20.712Z,99.90
2018-05-14T02:15:21.799Z,99.90
2018-05-14T02:20:22.824Z,99.90
2018-05-14T02:25:23.845Z,99.90
2018-05-14T02:30:24.881Z,99.90
2018-05-14T02:35:25.938Z,99.90
2018-05-14T02:40:26.970Z,99.90
2018-05-14T02:45:28.799Z,99.90
2018-05-14T02:50:29.826Z,99.90
2018-05-14T02:55:30.847Z,99.90
2018-05-14T03:00:31.894Z,99.90
2018-05-14T03:05:32.946Z,99.90
2018-05-14T03:10:34.109Z,99.90
2018-05-14T03:15:35.067Z,99.90
2018-05-14T03:20:36.123Z,99.90
2018-05-14T03:25:37.196Z,99.90
2018-05-14T03:30:38.276Z,99.90
2018-05-14T03:35:39.319Z,99.90
2018-05-14T03:40:40.369Z,99.90
2018-05-14T03:45:41.459Z,99.90
2018-05-14T03:50:42.495Z,99.90
2018-05-14T03:55:43.568Z,99.90
2018-05-14T04:00:57.050Z,99.90
2018-05-14T04:11:37.933Z,99.90
2018-05-14T04:16:39.027Z,99.90
2018-05-14T04:21:39.959Z,99.90
2018-05-14T04:26:41.798Z,99.90
2018-05-14T04:31:42.826Z,99.90
2018-05-14T04:36:43.854Z,99.90
2018-05-14T04:41:44.912Z,99.90
2018-05-14T04:46:45.985Z,99.90
2018-05-14T04:51:46.998Z,99.90
2018-05-14T04:56:48.038Z,99.90
2018-05-14T05:01:49.050Z,99.90
2018-05-14T05:12:07.774Z,99.90
2018-05-14T05:17:08.924Z,99.90
2018-05-14T05:22:09.886Z,99.90
2018-05-14T05:27:11.651Z,99.90
2018-05-14T05:32:13.393Z,99.90
2018-05-14T05:37:14.414Z,99.90
2018-05-14T05:42:15.434Z,99.90
2018-05-14T05:47:16.434Z,99.90
2018-05-14T05:52:17.455Z,99.90
2018-05-14T05:57:19.242Z,99.90
2018-05-14T06:02:21.003Z,99.90
2018-05-14T06:07:22.766Z,99.90
2018-05-14T06:12:23.799Z,99.90
2018-05-14T06:17:24.842Z,99.90
2018-05-14T06:22:26.018Z,99.90
2018-05-14T06:27:26.846Z,99.90
2018-05-14T06:32:27.867Z,99.90
2018-05-14T06:37:28.901Z,99.90
2018-05-14T06:42:29.935Z,99.90
2018-05-14T06:47:30.923Z,99.90
2018-05-14T06:52:31.957Z,99.90
2018-05-14T06:57:32.966Z,99.90
2018-05-14T07:02:33.968Z,99.90
2018-05-14T07:07:34.943Z,99.90
2018-05-14T07:12:35.973Z,99.90
2018-05-14T07:17:38.643Z,99.90
2018-05-14T07:22:40.298Z,99.90
2018-05-14T07:27:41.325Z,99.90
2018-05-14T07:32:42.374Z,99.90
2018-05-14T07:37:43.434Z,99.90
2018-05-14T07:42:44.445Z,99.90
2018-05-14T07:47:45.481Z,99.90
2018-05-14T07:52:46.484Z,99.90
2018-05-14T07:57:47.490Z,99.90
2018-05-14T08:02:48.530Z,99.90
2018-05-14T08:07:49.585Z,99.90
2018-05-14T08:12:50.606Z,99.90
2018-05-14T08:17:51.638Z,99.90
2018-05-14T08:22:52.651Z,99.90
2018-05-14T08:27:53.669Z,99.90
2018-05-14T08:32:55.420Z,99.90
2018-05-14T08:37:56.431Z,99.90
2018-05-14T08:42:57.466Z,99.90
2018-05-14T08:47:59.238Z,99.90
2018-05-14T08:53:01.036Z,99.90
2018-05-14T08:58:02.047Z,99.90
2018-05-14T09:03:03.066Z,99.90
2018-05-14T09:08:04.075Z,99.90
2018-05-14T09:13:05.839Z,99.90
2018-05-14T09:18:06.843Z,99.90
2018-05-14T09:23:07.838Z,99.90
2018-05-14T09:28:08.877Z,99.90
2018-05-14T09:33:09.858Z,99.90
2018-05-14T09:38:10.871Z,99.90
2018-05-14T09:43:11.876Z,99.90
2018-05-14T09:48:12.890Z,99.90
2018-05-14T09:53:13.894Z,99.90
2018-05-14T09:58:14.879Z,99.90
2018-05-14T10:03:16.638Z,99.90
2018-05-14T10:08:17.638Z,99.90
2018-05-14T10:13:18.660Z,99.90
2018-05-14T10:18:19.672Z,99.90
2018-05-14T10:23:20.686Z,99.90
2018-05-14T10:28:22.448Z,99.90
2018-05-14T10:33:23.466Z,99.90
2018-05-14T10:38:24.478Z,99.90
2018-05-14T10:43:26.230Z,99.90
2018-05-14T10:48:27.242Z,99.90
2018-05-14T10:53:28.252Z,99.90
2018-05-14T10:58:29.262Z,99.90
2018-05-14T11:03:30.269Z,99.90
2018-05-14T11:08:31.274Z,99.90
2018-05-14T11:13:32.293Z,99.90
2018-05-14T11:18:33.316Z,99.90
2018-05-14T11:23:34.331Z,99.90
2018-05-14T11:28:36.148Z,99.90
2018-05-14T11:33:37.158Z,99.90
2018-05-14T11:38:38.906Z,99.90
2018-05-14T11:43:39.913Z,99.90
2018-05-14T11:48:40.916Z,99.90
2018-05-14T11:53:41.918Z,99.90
2018-05-14T11:58:42.922Z,99.90
2018-05-14T12:03:43.947Z,99.90
2018-05-14T12:08:44.974Z,99.90
2018-05-14T12:13:46.787Z,99.90
2018-05-14T12:18:47.806Z,99.90
2018-05-14T12:23:49.595Z,99.90
2018-05-14T12:28:51.351Z,99.90
2018-05-14T12:33:52.359Z,99.90
2018-05-14T12:38:53.389Z,99.90
2018-05-14T12:43:54.391Z,99.90
2018-05-14T12:48:55.430Z,94.40
2018-05-14T12:53:56.453Z,99.90
2018-05-14T12:58:58.225Z,98.80
2018-05-14T13:03:59.986Z,96.90
2018-05-14T13:09:01.008Z,96.70
2018-05-14T13:14:02.019Z,96.20
2018-05-14T13:19:03.794Z,91.70
2018-05-14T13:24:05.547Z,88.50
2018-05-14T13:29:06.555Z,88.60
2018-05-14T13:34:07.578Z,84.00
2018-05-14T13:39:08.572Z,85.60
2018-05-14T13:44:09.592Z,87.10
2018-05-14T13:49:10.590Z,90.30
2018-05-14T13:54:11.594Z,87.70
2018-05-14T13:59:12.615Z,90.10
2018-05-14T14:04:13.617Z,86.20
2018-05-14T14:09:14.651Z,85.80
2018-05-14T14:14:15.656Z,84.80
2018-05-14T14:19:17.435Z,90.30
2018-05-14T14:24:19.300Z,92.20
2018-05-14T14:29:20.182Z,92.00
2018-05-14T14:34:21.203Z,94.80
2018-05-14T14:39:22.238Z,94.40
2018-05-14T14:44:23.262Z,87.70
2018-05-14T14:49:24.257Z,89.50
2018-05-14T14:54:25.260Z,92.40
2018-05-14T14:59:27.018Z,98.10
2018-05-14T15:04:28.762Z,99.90
2018-05-14T15:09:29.774Z,99.60
2018-05-14T15:14:30.791Z,95.80
2018-05-14T15:19:31.808Z,96.90
2018-05-14T15:24:32.814Z,99.90
2018-05-14T15:29:33.814Z,96.70
2018-05-14T15:34:34.850Z,95.90
2018-05-14T15:39:35.910Z,93.00
2018-05-14T15:44:36.955Z,96.90
2018-05-14T15:49:37.998Z,98.00
2018-05-14T15:54:39.020Z,97.10
2018-05-14T15:59:40.033Z,94.30
2018-05-14T16:04:41.778Z,99.90
2018-05-14T16:09:42.796Z,99.90
2018-05-14T16:14:43.828Z,99.90
2018-05-14T16:19:44.843Z,99.90
2018-05-14T16:24:45.854Z,99.90
2018-05-14T16:29:47.595Z,99.90
2018-05-14T16:34:48.686Z,99.90
2018-05-14T16:39:49.695Z,99.90
2018-05-14T16:44:50.690Z,99.90
2018-05-14T16:49:51.721Z,99.90
2018-05-14T16:54:52.706Z,99.90
2018-05-14T16:59:53.930Z,99.90
2018-05-14T17:04:55.014Z,99.90
2018-05-14T17:09:56.024Z,99.90
2018-05-14T17:14:57.236Z,99.90
2018-05-14T17:19:58.285Z,99.90
2018-05-14T17:24:59.308Z,99.90
2018-05-14T17:30:00.296Z,99.90
2018-05-14T17:35:01.879Z,99.90
2018-05-14T17:40:02.931Z,99.90
2018-05-14T17:45:04.309Z,99.90
2018-05-14T17:50:05.420Z,99.90
2018-05-14T17:55:06.413Z,99.90
2018-05-14T18:00:08.201Z,99.90
2018-05-14T18:05:10.001Z,99.90
2018-05-14T18:10:10.970Z,99.90
2018-05-14T18:15:11.955Z,99.90
2018-05-14T18:20:19.741Z,99.90
2018-05-14T18:25:26.950Z,99.90
2018-05-14T18:30:27.965Z,99.90
2018-05-14T18:41:00.532Z,99.90
2018-05-14T18:46:01.558Z,99.90
2018-05-14T18:51:02.546Z,99.90
2018-05-14T18:56:03.585Z,99.90
2018-05-14T19:01:04.693Z,99.90
2018-05-14T19:06:05.741Z,99.90
2018-05-14T19:11:12.987Z,99.90
2018-05-14T19:16:19.957Z,99.90
2018-05-14T19:21:21.717Z,99.90
2018-05-14T19:26:22.718Z,99.90
2018-05-14T19:31:23.741Z,99.90
2018-05-14T19:36:24.742Z,99.90
2018-05-14T19:41:25.754Z,99.90
2018-05-14T19:46:26.770Z,99.90
2018-05-14T19:51:27.761Z,99.90
2018-05-14T19:56:28.782Z,99.90
2018-05-14T20:01:29.807Z,99.90
2018-05-14T20:06:31.640Z,99.90
2018-05-14T20:11:33.441Z,99.90
2018-05-14T20:16:34.446Z,99.90
2018-05-14T20:21:36.213Z,99.90
2018-05-14T20:26:37.961Z,99.90
2018-05-14T20:31:38.987Z,99.90
2018-05-14T20:36:39.982Z,99.90
2018-05-14T20:41:41.053Z,99.90
2018-05-14T20:46:42.054Z,99.90
2018-05-14T20:51:43.078Z,99.90
2018-05-14T20:56:44.107Z,99.90
2018-05-14T21:01:45.118Z,99.90
2018-05-14T21:06:46.134Z,99.90
2018-05-14T21:11:47.156Z,99.90
2018-05-14T21:16:48.167Z,99.90
2018-05-14T21:21:49.914Z,99.90
2018-05-14T21:26:50.957Z,99.90
2018-05-14T21:31:51.955Z,99.90
2018-05-14T21:36:52.953Z,99.90
2018-05-14T21:41:53.955Z,99.90
2018-05-14T21:46:54.982Z,99.90
2018-05-14T21:51:55.974Z,99.90
2018-05-14T21:56:56.992Z,99.90
2018-05-14T22:01:58.055Z,99.90
2018-05-14T22:06:58.978Z,99.90
2018-05-14T22:12:00.717Z,99.90
2018-05-14T22:17:01.710Z,99.90
2018-05-14T22:22:02.733Z,99.90
2018-05-14T22:27:03.748Z,99.90
2018-05-14T22:32:04.762Z,99.90
2018-05-14T22:37:05.768Z,99.90
2018-05-14T22:42:06.754Z,99.90
2018-05-14T22:47:07.754Z,99.90
2018-05-14T22:52:09.509Z,99.90
2018-05-14T22:57:10.505Z,99.90
2018-05-14T23:02:11.505Z,99.90
2018-05-14T23:07:12.526Z,99.90
2018-05-14T23:12:13.537Z,99.90
2018-05-14T23:17:15.301Z,99.90
2018-05-14T23:22:16.311Z,99.90
2018-05-14T23:27:17.294Z,99.90
2018-05-14T23:32:18.299Z,99.90
2018-05-14T23:37:20.038Z,99.90
2018-05-14T23:42:21.037Z,99.90
2018-05-14T23:47:22.755Z,99.90
2018-05-14T23:52:23.742Z,99.90
2018-05-14T23:57:24.758Z,99.90
